Alkali Lake, Canada
Current Conditions -  °F | °C
As of 3:00 PM on Thursday 27 Nov 2014 (Local Time) from CYWL Reporting Station
Haze Haze  
Wind Chill:   Ceiling: 500
Heat Index: 16°   Visibility: 2.5mi
Dew Point: 14°   Wind: 12mph
Humidity: 93%   Direction: 300°WNW
Pressure: 29.47"   Gusts: NA
Location:  51.77°N, 122.3°W
Report Text: CYWL 272300Z 30010KT 2 1/2SM BR OVC005 M09/M10 A2947 RMK ST8 SLP026
Loading
Personal Weather Stations






























Interactive Weather Map New forecast layout! Learn more

10-Day Weather Forecast

Advertisements
Track Severe Weather on mobile